Rock Springs, Wisconsin
Current Conditions -  °F | °C
As of 7:15 AM on Friday 28 Nov 2014 (Local Time) from KC35 Reporting Station
Overcast Overcast  
Wind Chill: -16°   Ceiling: 7000
Heat Index: -10°   Visibility: 10mi
Dew Point: -12°   Wind: 7mph
Humidity: 84%   Direction: 150°SSE
Pressure: 30.13"   Gusts: NA
Location:  43.49°N, 89.92°W
Report Text: KC35 281315Z AUTO 15006KT 10SM OVC070 M10/M12 A3013 RMK AO2 T11001123
Loading
Personal Weather Stations






























Interactive Weather Map New forecast layout! Learn more

10-Day Weather Forecast

Advertisements
Track Severe Weather on mobile